x

Isle Of Portland (03857) Weather Station

2:00 - Wed 22nd Oct 2014 All times are BST. 1 hours from GMT.

  • Wind
    26mph, 36mph gusts
  • Aire Temp 53°f
  • Sea Pressure 1026mb
  • Isle Of Portland
  • Isle Of Portland

More Historic Weather Station data

Upgrade to MSW Pro to gain access to the past 30 days of data for over 8000 Wavebouys and Weather Stations around the globe.

Join Pro

Comparision Forecast

View Surf forecast
   
mié 10/22 2:00 26 36 mph 1026mb 53f
1:00 25 36 mph 1025mb 52f
12:00 25 37 mph 1024mb 53f
mar 10/21 11:00 25 46 mph 1023mb 53f
10:00 29 43 mph 1022mb 53f
9:00 31 52 mph 1021mb 53f
8:00 34 56 mph 1019mb 53f
7:00 34 55 mph 1018mb 54f
6:00 36 54 mph 1016mb 55f
5:00 39 56 mph 1016mb 55f
4:00 33 53 mph 1015mb 56f
3:00 38 54 mph 1013mb 56f
2:00 38 51 mph 1012mb 56f
1:00 41 54 mph 1011mb 55f
12:00 40 56 mph 1010mb 55f
11:00 36 56 mph 1009mb 56f
10:00 41 59 mph 1007mb 55f
9:00 41 54 mph 1005mb 57f
8:00 31 52 mph 1004mb 58f
7:00 41 55 mph 1004mb 59f
6:00 40 54 mph 1005mb 59f
5:00 40 54 mph 1006mb 58f
4:00 43 52 mph 1007mb 58f
3:00 34 49 mph 1009mb 57f
2:00 29 40 mph 1010mb 57f
1:00 32 43 mph 1011mb 58f
12:00 31 43 mph 1012mb 59f
lun 10/20 11:00 28 34 mph 1013mb 58f
10:00 26 33 mph 1014mb 58f
9:00 24 33 mph 1015mb 58f
8:00 23 38 mph 1015mb 56f
7:00 24 33 mph 1015mb 58f
6:00 26 36 mph 1015mb 57f
5:00 26 33 mph 1016mb 59f
4:00 19 33 mph 1016mb 58f
3:00 23 33 mph 1017mb 59f
2:00 25 33 mph 1017mb 61f
1:00 24 32 mph 1018mb 59f
12:00 23 30 mph 1018mb 61f
11:00 22 30 mph 1018mb 60f
10:00 22 29 mph 1018mb 58f
9:00 21
mph
1018mb 58f
8:00 21
mph
1018mb 57f
7:00 17
mph
1018mb 57f
6:00 21 29 mph 1018mb 57f
5:00 23 31 mph 1018mb 58f
4:00 19 30 mph 1018mb 58f
3:00 24 34 mph 1018mb 58f
2:00 25 33 mph 1018mb 58f
1:00 24 36 mph 1018mb 58f
12:00 26 38 mph 1018mb 59f
dom 10/19 11:00 28 36 mph 1017mb 59f
10:00 25 38 mph 1017mb 59f
9:00 26 39 mph 1017mb 60f
8:00 31 39 mph 1016mb 59f
7:00 30 38 mph 1016mb 59f
6:00 28 36 mph 1015mb 60f
5:00 29 38 mph 1015mb 60f
4:00 30 39 mph 1015mb 61f
3:00 28 37 mph 1015mb 62f
2:00 29 37 mph 1015mb 62f
1:00 25 33 mph 1015mb 62f
12:00 26 33 mph 1015mb 61f
11:00 25 33 mph 1014mb 62f
10:00 24 30 mph 1014mb 60f
9:00 22 30 mph 1013mb 60f
8:00 23 31 mph 1013mb 60f
7:00 22 29 mph 1012mb 60f
6:00 21 29 mph 1012mb 60f
5:00 22 29 mph 1012mb 60f
4:00 18
mph
1011mb 60f
3:00 19
mph
1012mb 60f
2:00 11 29 mph 1012mb 62f
1:00 14
mph
1012mb 62f
12:00 18
mph
1013mb 62f
sáb 10/18 11:00 15
mph
1012mb 62f
10:00 15
mph
1013mb 62f
9:00 15
mph
1012mb 62f
8:00 11
mph
1012mb 62f
7:00 11
mph
1012mb 62f
6:00 14
mph
1012mb 62f
5:00 15
mph
1011mb 62f
4:00 18
mph
1011mb 63f
3:00 16
mph
1011mb 63f
2:00 17
mph
1011mb 64f
1:00 17
mph
1010mb 64f
12:00 15
mph
1010mb 63f
11:00 17
mph
1010mb 63f
10:00 17 29 mph 1009mb 63f
9:00 22 32 mph 1009mb 63f
8:00 19 34 mph 1008mb 62f
7:00 22 36 mph 1007mb 62f
6:00 18 29 mph 1007mb 62f
5:00 23 37 mph 1007mb 62f
4:00 29 39 mph 1007mb 62f